createdAt,value
2019-02-14T00:01:42.965Z,87.00
2019-02-14T00:04:31.114Z,87.10
2019-02-14T00:07:19.823Z,87.20
2019-02-14T00:10:08.082Z,87.10
2019-02-14T00:12:56.682Z,87.40
2019-02-14T00:15:45.550Z,87.50
2019-02-14T00:18:34.491Z,87.50
2019-02-14T00:21:22.770Z,87.90
2019-02-14T00:24:11.527Z,88.00
2019-02-14T00:26:59.998Z,87.70
2019-02-14T00:29:47.947Z,87.50
2019-02-14T00:32:36.424Z,86.60
2019-02-14T00:35:25.305Z,87.00
2019-02-14T00:38:14.069Z,87.60
2019-02-14T00:41:02.071Z,88.20
2019-02-14T00:43:50.275Z,88.60
2019-02-14T00:46:38.261Z,89.20
2019-02-14T00:49:26.162Z,89.00
2019-02-14T00:52:26.746Z,89.30
2019-02-14T00:55:15.082Z,89.10
2019-02-14T00:58:03.321Z,88.90
2019-02-14T01:00:51.614Z,88.80
2019-02-14T01:03:39.205Z,89.10
2019-02-14T01:06:27.323Z,89.40
2019-02-14T01:09:15.930Z,89.60
2019-02-14T01:12:04.406Z,90.00
2019-02-14T01:14:52.243Z,90.10
2019-02-14T01:17:40.948Z,90.20
2019-02-14T01:20:29.300Z,90.20
2019-02-14T01:23:17.266Z,90.30
2019-02-14T01:26:05.800Z,90.40
2019-02-14T01:28:54.878Z,90.20
2019-02-14T01:31:42.941Z,90.30
2019-02-14T01:34:31.547Z,90.30
2019-02-14T01:37:20.559Z,90.50
2019-02-14T01:40:08.494Z,90.60
2019-02-14T01:42:56.966Z,90.60
2019-02-14T01:45:45.969Z,90.20
2019-02-14T01:48:33.921Z,90.00
2019-02-14T01:51:22.244Z,89.50
2019-02-14T01:54:10.309Z,89.50
2019-02-14T01:56:59.015Z,90.00
2019-02-14T01:59:47.228Z,90.00
2019-02-14T02:02:35.579Z,90.10
2019-02-14T02:05:23.801Z,90.30
2019-02-14T02:08:11.474Z,90.40
2019-02-14T02:11:00.007Z,90.20
2019-02-14T02:13:48.027Z,90.30
2019-02-14T02:16:36.310Z,90.50
2019-02-14T02:19:24.622Z,90.70
2019-02-14T02:22:12.640Z,90.80
2019-02-14T02:25:01.177Z,90.80
2019-02-14T02:27:50.131Z,90.80
2019-02-14T02:30:38.139Z,90.70
2019-02-14T02:33:26.976Z,90.80
2019-02-14T02:36:15.208Z,91.00
2019-02-14T02:39:05.223Z,91.00
2019-02-14T02:41:59.904Z,91.00
2019-02-14T02:44:48.062Z,90.90
2019-02-14T02:47:43.355Z,91.10
2019-02-14T02:50:32.056Z,91.30
2019-02-14T02:53:19.892Z,91.30
2019-02-14T02:56:08.830Z,91.40
2019-02-14T02:58:56.979Z,91.40
2019-02-14T03:01:44.804Z,91.50
2019-02-14T03:04:33.318Z,91.60
2019-02-14T03:07:21.378Z,91.60
2019-02-14T03:10:10.191Z,91.50
2019-02-14T03:12:57.997Z,91.30
2019-02-14T03:15:46.424Z,91.20
2019-02-14T03:18:35.637Z,91.10
2019-02-14T03:21:23.427Z,91.00
2019-02-14T03:24:11.150Z,91.10
2019-02-14T03:26:59.459Z,91.30
2019-02-14T03:29:48.315Z,91.50
2019-02-14T03:32:36.930Z,91.70
2019-02-14T03:35:25.927Z,91.70
2019-02-14T03:38:13.973Z,91.60
2019-02-14T03:41:01.699Z,91.60
2019-02-14T03:43:49.602Z,91.60
2019-02-14T03:46:38.035Z,91.80
2019-02-14T03:49:25.870Z,91.70
2019-02-14T03:52:14.746Z,91.80
2019-02-14T03:55:02.955Z,92.00
2019-02-14T03:57:51.321Z,92.20
2019-02-14T04:00:42.083Z,92.20
2019-02-14T04:03:29.808Z,92.10
2019-02-14T04:06:18.002Z,92.00
2019-02-14T04:09:08.373Z,92.00
2019-02-14T04:11:56.663Z,92.10
2019-02-14T04:14:44.567Z,92.10
2019-02-14T04:17:32.723Z,92.00
2019-02-14T04:20:20.710Z,92.00
2019-02-14T04:23:08.945Z,92.20
2019-02-14T04:25:57.006Z,92.40
2019-02-14T04:28:45.466Z,92.20
2019-02-14T04:31:33.611Z,92.00
2019-02-14T04:34:22.422Z,91.90
2019-02-14T04:37:10.992Z,92.10
2019-02-14T04:39:58.176Z,92.30
2019-02-14T04:42:47.549Z,92.20
2019-02-14T04:45:35.942Z,92.20
2019-02-14T04:48:24.916Z,92.50
2019-02-14T04:51:19.292Z,92.50
2019-02-14T04:54:08.077Z,92.50
2019-02-14T04:56:57.227Z,92.70
2019-02-14T04:59:45.308Z,92.80
2019-02-14T05:02:33.683Z,93.00
2019-02-14T05:05:22.058Z,93.20
2019-02-14T05:08:10.446Z,93.10
2019-02-14T05:10:58.651Z,93.00
2019-02-14T05:13:46.673Z,93.00
2019-02-14T05:16:35.624Z,93.10
2019-02-14T05:19:23.720Z,93.00
2019-02-14T05:22:11.648Z,93.10
2019-02-14T05:24:59.383Z,93.10
2019-02-14T05:27:48.441Z,93.00
2019-02-14T05:30:36.266Z,93.10
2019-02-14T05:33:24.436Z,92.90
2019-02-14T05:36:13.258Z,92.90
2019-02-14T05:39:02.246Z,92.90
2019-02-14T05:41:50.326Z,92.90
2019-02-14T05:44:38.575Z,93.00
2019-02-14T05:47:26.850Z,93.10
2019-02-14T05:50:15.210Z,93.20
2019-02-14T05:53:04.247Z,93.30
2019-02-14T05:55:52.243Z,93.40
2019-02-14T05:58:40.147Z,93.50
2019-02-14T06:01:28.052Z,93.70
2019-02-14T06:04:16.450Z,93.70
2019-02-14T06:07:04.570Z,93.50
2019-02-14T06:09:52.824Z,93.50
2019-02-14T06:12:41.671Z,93.30
2019-02-14T06:15:30.009Z,93.20
2019-02-14T06:18:18.229Z,93.20
2019-02-14T06:21:06.603Z,93.10
2019-02-14T06:23:55.109Z,93.20
2019-02-14T06:26:43.762Z,93.40
2019-02-14T06:29:31.903Z,93.50
2019-02-14T06:32:19.978Z,93.50
2019-02-14T06:35:08.519Z,93.40
2019-02-14T06:37:56.739Z,93.50
2019-02-14T06:40:44.729Z,93.50
2019-02-14T06:43:33.125Z,93.50
2019-02-14T06:46:20.673Z,93.40
2019-02-14T06:49:08.944Z,93.40
2019-02-14T06:51:56.939Z,93.40
2019-02-14T06:54:45.634Z,93.50
2019-02-14T06:57:33.519Z,93.50
2019-02-14T07:00:21.470Z,93.50
2019-02-14T07:03:09.788Z,93.70
2019-02-14T07:05:58.995Z,93.50
2019-02-14T07:08:46.914Z,93.50
2019-02-14T07:11:35.987Z,93.60
2019-02-14T07:14:24.218Z,93.70
2019-02-14T07:17:12.269Z,93.80
2019-02-14T07:20:00.587Z,93.80
2019-02-14T07:22:48.993Z,93.70
2019-02-14T07:25:37.886Z,93.40
2019-02-14T07:28:26.901Z,93.40
2019-02-14T07:31:16.818Z,93.50
2019-02-14T07:34:05.182Z,93.60
2019-02-14T07:36:53.426Z,93.60
2019-02-14T07:39:42.315Z,93.80
2019-02-14T07:42:30.028Z,93.60
2019-02-14T07:45:17.718Z,93.60
2019-02-14T07:48:06.647Z,93.60
2019-02-14T07:50:54.918Z,93.50
2019-02-14T07:53:43.367Z,93.40
2019-02-14T07:56:32.179Z,93.20
2019-02-14T07:59:21.134Z,93.00
2019-02-14T08:02:08.916Z,92.80
2019-02-14T08:04:57.146Z,92.70
2019-02-14T08:07:44.739Z,92.60
2019-02-14T08:10:33.811Z,92.60
2019-02-14T08:13:21.706Z,92.70
2019-02-14T08:16:10.774Z,92.60
2019-02-14T08:19:00.106Z,92.60
2019-02-14T08:21:48.328Z,92.60
2019-02-14T08:24:36.162Z,92.80
2019-02-14T08:27:24.319Z,92.60
2019-02-14T08:30:14.630Z,92.40
2019-02-14T08:33:07.859Z,92.30
2019-02-14T08:35:56.303Z,92.00
2019-02-14T08:38:44.449Z,91.80
2019-02-14T08:41:32.679Z,91.50
2019-02-14T08:44:20.287Z,91.60
2019-02-14T08:47:08.693Z,91.80
2019-02-14T08:49:57.503Z,91.80
2019-02-14T08:52:46.008Z,92.40
2019-02-14T08:55:34.788Z,92.40
2019-02-14T08:58:22.996Z,92.30
2019-02-14T09:01:11.054Z,92.40
2019-02-14T09:03:59.767Z,92.20
2019-02-14T09:06:47.766Z,91.70
2019-02-14T09:09:35.357Z,91.70
2019-02-14T09:12:23.131Z,91.40
2019-02-14T09:15:12.156Z,91.20
2019-02-14T09:18:00.587Z,91.00
2019-02-14T09:20:48.782Z,90.90
2019-02-14T09:23:36.586Z,90.80
2019-02-14T09:26:24.996Z,90.80
2019-02-14T09:29:14.386Z,90.80
2019-02-14T09:32:02.623Z,90.80
2019-02-14T09:34:51.327Z,90.70
2019-02-14T09:37:39.650Z,90.40
2019-02-14T09:40:27.849Z,90.30
2019-02-14T09:43:15.692Z,90.20
2019-02-14T09:46:04.235Z,90.30
2019-02-14T09:48:52.554Z,90.50
2019-02-14T09:51:41.450Z,90.40
2019-02-14T09:54:31.313Z,90.30
2019-02-14T09:57:19.458Z,90.20
2019-02-14T10:00:09.926Z,90.00
2019-02-14T10:02:58.219Z,90.20
2019-02-14T10:05:46.248Z,89.40
2019-02-14T10:08:34.734Z,88.70
2019-02-14T10:11:23.529Z,88.50
2019-02-14T10:14:11.536Z,88.70
2019-02-14T10:17:00.426Z,88.50
2019-02-14T10:19:48.334Z,88.10
2019-02-14T10:22:36.883Z,86.00
2019-02-14T10:25:24.515Z,85.50
2019-02-14T10:28:12.587Z,85.00
2019-02-14T10:31:01.829Z,85.10
2019-02-14T10:33:49.935Z,84.50
2019-02-14T10:36:38.436Z,84.20
2019-02-14T10:39:26.772Z,83.90
2019-02-14T10:42:15.061Z,83.30
2019-02-14T10:45:03.635Z,82.80
2019-02-14T10:47:51.827Z,82.80
2019-02-14T10:50:40.245Z,82.70
2019-02-14T10:53:27.994Z,80.40
2019-02-14T10:56:16.692Z,79.40
2019-02-14T10:59:05.051Z,79.50
2019-02-14T11:01:53.986Z,78.40
2019-02-14T11:04:41.992Z,76.90
2019-02-14T11:07:30.276Z,75.40
2019-02-14T11:10:18.394Z,75.30
2019-02-14T11:13:07.129Z,74.70
2019-02-14T11:16:00.257Z,72.70
2019-02-14T11:18:48.703Z,70.30
2019-02-14T11:21:37.869Z,69.70
2019-02-14T11:24:26.061Z,69.20
2019-02-14T11:27:14.653Z,69.70
2019-02-14T11:30:02.673Z,68.90
2019-02-14T11:32:50.747Z,66.10
2019-02-14T11:35:39.290Z,64.80
2019-02-14T11:38:27.041Z,63.50
2019-02-14T11:41:15.399Z,62.00
2019-02-14T11:44:03.534Z,60.80
2019-02-14T11:46:52.261Z,60.50
2019-02-14T11:49:40.095Z,57.70
2019-02-14T11:52:28.192Z,54.70
2019-02-14T11:55:17.283Z,53.90
2019-02-14T11:58:05.429Z,54.00
2019-02-14T12:00:55.306Z,53.50
2019-02-14T12:03:43.346Z,52.30
2019-02-14T12:06:31.938Z,50.10
2019-02-14T12:09:20.819Z,47.90
2019-02-14T12:12:08.828Z,47.40
2019-02-14T12:14:57.206Z,46.20
2019-02-14T12:17:45.340Z,44.50
2019-02-14T12:20:34.130Z,44.50
2019-02-14T12:23:21.822Z,44.70
2019-02-14T12:26:10.274Z,44.60
2019-02-14T12:28:58.345Z,45.20
2019-02-14T12:31:47.229Z,43.60
2019-02-14T12:34:40.880Z,43.30
2019-02-14T12:37:29.483Z,43.60
2019-02-14T12:40:17.642Z,43.50
2019-02-14T12:43:05.546Z,44.30
2019-02-14T12:45:53.635Z,44.40
2019-02-14T12:48:42.592Z,44.80
2019-02-14T12:51:31.762Z,44.70
2019-02-14T12:54:20.010Z,45.40
2019-02-14T12:57:08.261Z,45.90
2019-02-14T12:59:56.478Z,46.60
2019-02-14T13:02:44.899Z,46.90
2019-02-14T13:05:32.551Z,47.10
2019-02-14T13:08:20.702Z,47.20
2019-02-14T13:11:08.506Z,47.00
2019-02-14T13:13:57.086Z,46.00
2019-02-14T13:16:45.399Z,45.40
2019-02-14T13:19:33.599Z,43.90
2019-02-14T13:22:22.162Z,42.80
2019-02-14T13:25:10.560Z,42.80
2019-02-14T13:27:59.050Z,44.10
2019-02-14T13:30:46.922Z,45.00
2019-02-14T13:33:35.835Z,46.00
2019-02-14T13:36:23.858Z,45.90
2019-02-14T13:39:12.288Z,46.10
2019-02-14T13:42:01.262Z,45.80
2019-02-14T13:44:49.267Z,45.90
2019-02-14T13:47:44.935Z,46.00
2019-02-14T13:50:33.330Z,45.80
2019-02-14T13:53:22.217Z,44.90
2019-02-14T13:56:10.860Z,44.40
2019-02-14T13:58:59.391Z,43.80
2019-02-14T14:01:48.802Z,43.70
2019-02-14T14:04:37.692Z,42.40
2019-02-14T14:07:25.871Z,41.30
2019-02-14T14:10:14.392Z,42.60
2019-02-14T14:13:02.358Z,42.70
2019-02-14T14:15:51.010Z,42.10
2019-02-14T14:18:39.551Z,41.20
2019-02-14T14:21:27.639Z,40.40
2019-02-14T14:24:15.458Z,39.70
2019-02-14T14:27:04.322Z,40.00
2019-02-14T14:29:52.342Z,40.30
2019-02-14T14:32:40.119Z,39.70
2019-02-14T14:35:28.418Z,39.70
2019-02-14T14:38:17.442Z,39.40
2019-02-14T14:41:06.039Z,38.80
2019-02-14T14:44:02.143Z,38.60
2019-02-14T14:46:54.937Z,38.30
2019-02-14T14:49:44.270Z,38.30
2019-02-14T14:52:32.566Z,38.30
2019-02-14T14:55:20.539Z,38.70
2019-02-14T14:58:08.999Z,39.20
2019-02-14T15:01:03.826Z,38.40
2019-02-14T15:03:52.302Z,37.60
2019-02-14T15:06:41.182Z,37.60
2019-02-14T15:09:29.482Z,37.70
2019-02-14T15:12:17.937Z,37.40
2019-02-14T15:15:07.402Z,37.60
2019-02-14T15:17:56.091Z,37.50
2019-02-14T15:20:44.582Z,38.40
2019-02-14T15:23:32.932Z,38.80
2019-02-14T15:26:21.334Z,38.10
2019-02-14T15:29:09.546Z,37.70
2019-02-14T15:31:57.698Z,38.00
2019-02-14T15:34:46.398Z,38.40
2019-02-14T15:37:34.707Z,38.20
2019-02-14T15:40:22.860Z,39.00
2019-02-14T15:43:11.565Z,38.60
2019-02-14T15:45:59.555Z,38.90
2019-02-14T15:48:49.030Z,39.20
2019-02-14T15:51:39.401Z,39.40
2019-02-14T15:54:35.290Z,40.30
2019-02-14T15:57:23.967Z,40.90
2019-02-14T16:00:13.299Z,39.80
2019-02-14T16:03:02.206Z,41.20
2019-02-14T16:05:50.180Z,42.00
2019-02-14T16:08:38.560Z,42.00
2019-02-14T16:11:27.042Z,42.00
2019-02-14T16:14:16.350Z,42.90
2019-02-14T16:17:06.652Z,44.70
2019-02-14T16:19:55.945Z,44.40
2019-02-14T16:22:44.838Z,44.20
2019-02-14T16:25:31.661Z,44.40
2019-02-14T16:28:20.399Z,44.40
2019-02-14T16:31:09.258Z,44.90
2019-02-14T16:33:58.422Z,45.50
2019-02-14T16:36:47.108Z,46.60
2019-02-14T16:39:35.377Z,47.00
2019-02-14T16:42:23.625Z,46.70
2019-02-14T16:45:12.546Z,47.20
2019-02-14T16:48:00.718Z,47.50
2019-02-14T16:50:50.098Z,48.30
2019-02-14T16:53:40.110Z,48.40
2019-02-14T16:56:29.095Z,48.90
2019-02-14T16:59:17.254Z,49.40
2019-02-14T17:02:05.789Z,50.00
2019-02-14T17:04:54.208Z,50.10
2019-02-14T17:07:41.915Z,50.30
2019-02-14T17:10:36.632Z,50.80
2019-02-14T17:13:20.330Z,51.50
2019-02-14T17:16:10.165Z,51.80
2019-02-14T17:18:59.150Z,51.80
2019-02-14T17:21:47.122Z,52.00
2019-02-14T17:24:35.539Z,52.20
2019-02-14T17:27:24.258Z,52.60
2019-02-14T17:30:13.299Z,53.60
2019-02-14T17:33:08.831Z,53.80
2019-02-14T17:35:57.647Z,53.80
2019-02-14T17:38:46.030Z,53.40
2019-02-14T17:41:33.743Z,53.80
2019-02-14T17:44:22.471Z,54.20
2019-02-14T17:47:10.866Z,54.70
2019-02-14T17:49:59.256Z,54.70
2019-02-14T17:55:43.286Z,54.40
2019-02-14T17:58:31.870Z,53.80
2019-02-14T18:01:26.455Z,54.40
2019-02-14T18:04:14.963Z,55.20
2019-02-14T18:07:02.990Z,55.70
2019-02-14T18:09:51.031Z,56.00
2019-02-14T18:12:38.835Z,56.30
2019-02-14T18:15:26.785Z,56.70
2019-02-14T18:18:16.466Z,56.90
2019-02-14T18:21:05.377Z,57.30
2019-02-14T18:23:55.714Z,58.00
2019-02-14T18:26:44.574Z,58.50
2019-02-14T18:29:33.879Z,58.80
2019-02-14T18:32:22.514Z,59.20
2019-02-14T18:37:58.800Z,60.50
2019-02-14T18:40:47.875Z,61.00
2019-02-14T18:43:37.026Z,61.30
2019-02-14T18:46:26.259Z,62.00
2019-02-14T18:49:16.088Z,62.20
2019-02-14T18:52:04.840Z,62.60
2019-02-14T18:54:52.915Z,62.60
2019-02-14T18:57:42.758Z,62.90
2019-02-14T19:00:31.834Z,63.00
2019-02-14T19:03:19.796Z,63.30
2019-02-14T19:06:07.655Z,63.20
2019-02-14T19:08:56.992Z,63.70
2019-02-14T19:11:45.707Z,63.70
2019-02-14T19:14:33.991Z,64.00
2019-02-14T19:17:22.972Z,64.20
2019-02-14T19:20:11.822Z,64.50
2019-02-14T19:23:00.715Z,64.50
2019-02-14T19:25:48.778Z,64.90
2019-02-14T19:28:37.602Z,64.90
2019-02-14T19:31:26.455Z,65.00
2019-02-14T19:34:15.624Z,65.20
2019-02-14T19:37:04.274Z,65.50
2019-02-14T19:39:53.611Z,65.90
2019-02-14T19:42:41.967Z,66.00
2019-02-14T19:45:36.702Z,66.20
2019-02-14T19:48:26.923Z,66.60
2019-02-14T19:51:22.232Z,67.00
2019-02-14T19:54:10.862Z,67.60
2019-02-14T19:56:59.676Z,67.60
2019-02-14T19:59:47.818Z,67.60
2019-02-14T20:02:35.537Z,67.30
2019-02-14T20:05:27.983Z,67.60
2019-02-14T20:08:16.251Z,67.90
2019-02-14T20:11:05.439Z,67.90
2019-02-14T20:16:49.209Z,68.80
2019-02-14T20:19:38.100Z,69.00
2019-02-14T20:22:26.815Z,69.30
2019-02-14T20:25:16.661Z,69.50
2019-02-14T20:28:04.579Z,69.40
2019-02-14T20:30:53.614Z,69.60
2019-02-14T20:33:41.883Z,69.90
2019-02-14T20:36:30.202Z,70.30
2019-02-14T20:39:19.642Z,70.10
2019-02-14T20:42:07.935Z,70.20
2019-02-14T20:44:56.782Z,70.30
2019-02-14T20:47:46.070Z,70.30
2019-02-14T20:50:34.485Z,70.70
2019-02-14T20:53:22.963Z,71.00
2019-02-14T20:56:11.486Z,71.20
2019-02-14T20:59:00.614Z,71.10
2019-02-14T21:01:48.749Z,71.50
2019-02-14T21:04:37.200Z,71.80
2019-02-14T21:07:25.089Z,71.90
2019-02-14T21:10:13.257Z,71.80
2019-02-14T21:13:01.759Z,71.70
2019-02-14T21:15:50.998Z,71.30
2019-02-14T21:18:39.212Z,71.20
2019-02-14T21:21:28.938Z,71.80
2019-02-14T21:24:17.651Z,71.90
2019-02-14T21:27:07.257Z,72.40
2019-02-14T21:29:55.600Z,72.30
2019-02-14T21:32:44.980Z,72.50
2019-02-14T21:35:33.816Z,73.10
2019-02-14T21:38:22.206Z,73.50
2019-02-14T21:41:11.045Z,74.00
2019-02-14T21:43:59.232Z,74.50
2019-02-14T21:46:47.839Z,74.40
2019-02-14T21:49:36.910Z,74.50
2019-02-14T21:52:25.307Z,74.80
2019-02-14T21:55:14.148Z,74.60
2019-02-14T21:58:04.589Z,74.50
2019-02-14T22:00:53.006Z,74.50
2019-02-14T22:03:40.702Z,74.50
2019-02-14T22:06:29.144Z,74.70
2019-02-14T22:09:17.382Z,74.70
2019-02-14T22:12:06.324Z,75.00
2019-02-14T22:14:54.315Z,75.00
2019-02-14T22:17:42.700Z,75.20
2019-02-14T22:20:31.386Z,75.50
2019-02-14T22:23:19.598Z,75.90
2019-02-14T22:26:07.730Z,76.20
2019-02-14T22:28:55.784Z,76.30
2019-02-14T22:31:44.665Z,76.80
2019-02-14T22:34:33.041Z,77.10
2019-02-14T22:37:21.428Z,76.90
2019-02-14T22:40:10.379Z,77.10
2019-02-14T22:42:58.783Z,77.50
2019-02-14T22:45:47.224Z,77.60
2019-02-14T22:48:35.548Z,77.90
2019-02-14T22:51:23.965Z,78.40
2019-02-14T22:54:11.894Z,78.60
2019-02-14T22:57:00.606Z,78.70
2019-02-14T22:59:48.510Z,79.00
2019-02-14T23:02:37.498Z,79.30
2019-02-14T23:05:26.285Z,79.30
2019-02-14T23:08:14.105Z,79.20
2019-02-14T23:11:06.914Z,78.80
2019-02-14T23:13:55.572Z,78.70
2019-02-14T23:16:44.252Z,79.40
2019-02-14T23:19:32.590Z,79.80
2019-02-14T23:22:20.818Z,80.10
2019-02-14T23:25:08.694Z,80.10
2019-02-14T23:27:57.430Z,80.50
2019-02-14T23:30:46.643Z,80.90
2019-02-14T23:33:35.363Z,81.00
2019-02-14T23:36:23.167Z,81.10
2019-02-14T23:39:11.899Z,80.90
2019-02-14T23:42:00.135Z,81.00
2019-02-14T23:44:48.629Z,81.20
2019-02-14T23:47:43.488Z,81.70
2019-02-14T23:50:31.902Z,81.90
2019-02-14T23:53:20.662Z,82.40
2019-02-14T23:56:08.662Z,81.70
2019-02-14T23:58:57.042Z,82.00
